This is the latest recevied weather packets stored in our database for station/object K5GHS-1. If no packets are shown the sender has not sent any weather packets the latest 10 day(s).
| Time | Temp. | Humidity | Pressure | Rain* | Wind** | Luminosity | Snow |
|---|---|---|---|---|---|---|---|
| 1777752861 | 26.67° C | 32% | 1018.4 hPa | 0 mm | - | 621 W/m² | - |
| 1777752558 | 26.67° C | 31% | 1018.6 hPa | 0 mm | - | 633 W/m² | - |
| 1777752254 | 26.67° C | 33% | 1018.5 hPa | 0 mm | - | 636 W/m² | - |
| 1777751952 | 26.11° C | 32% | 1018.6 hPa | 0 mm | - | 642 W/m² | - |
| 1777751649 | 26.11° C | 33% | 1018.6 hPa | 0 mm | - | 655 W/m² | - |
| 1777751345 | 26.11° C | 32% | 1018.6 hPa | 0 mm | - | 647 W/m² | - |
| 1777750738 | 26.11° C | 31% | 1018.9 hPa | 0 mm | - | 664 W/m² | - |
| 1777750130 | 25.56° C | 32% | 1018.9 hPa | 0 mm | - | 687 W/m² | - |
| 1777749524 | 26.11° C | 33% | 1019 hPa | 0 mm | - | 667 W/m² | - |
| 1777748919 | 26.67° C | 31% | 1019.1 hPa | 0 mm | - | 718 W/m² | - |
| 1777748313 | 26.11° C | 31% | 1019.1 hPa | 0 mm | - | 744 W/m² | - |
| 1777747706 | 26.11° C | 35% | 1019.3 hPa | 0 mm | - | 703 W/m² | - |
| 1777747098 | 25.56° C | 33% | 1019.3 hPa | 0 mm | - | 696 W/m² | - |
| 1777745882 | 25° C | 34% | 1019.5 hPa | 0 mm | - | 715 W/m² | - |
| 1777744670 | 25° C | 34% | 1019.9 hPa | 0 mm | - | 726 W/m² | - |
| 1777742851 | 23.89° C | 33% | 1020.2 hPa | 0 mm | - | 704 W/m² | - |
| 1777741031 | 24.44° C | 31% | 1020.3 hPa | 0 mm | - | 784 W/m² | - |
| 1777739816 | 23.33° C | 36% | 1020.4 hPa | 0 mm | - | 699 W/m² | - |
| 1777739210 | 23.89° C | 32% | 1020.4 hPa | 0 mm | - | 740 W/m² | - |
| 1777738907 | 23.89° C | 36% | 1020.4 hPa | 0 mm | - | 740 W/m² | - |
| 1777738605 | 23.33° C | 34% | 1020.5 hPa | 0 mm | - | 720 W/m² | - |
| 1777738301 | 23.33° C | 37% | 1020.3 hPa | 0 mm | - | 699 W/m² | - |
| 1777737999 | 23.33° C | 39% | 1020.5 hPa | 0 mm | - | 730 W/m² | - |
| 1777737698 | 22.78° C | 37% | 1020.6 hPa | 0 mm | - | 754 W/m² | - |
| 1777737093 | 22.78° C | 38% | 1020.5 hPa | 0 mm | - | 721 W/m² | - |
* Rain latest hour (hover to see other rain measurements)
** Current wind speed in m/s (hover to see current wind gust speed)